Time;durP1;ratioP1;P1;durP2;ratioP2;P2;SDS_P1;SDS_P2;PMS_P1;PMS_P2;Temp;Humidity;BMP_temperature;BMP_pressure;BME280_temperature;BME280_humidity;BME280_pressure;Samples;Min_cycle;Max_cycle;Signal;HPM_P1;HPM_P2
2021/12/06 01:53:43;;;;;;;37.47;13.13;;;;;;;;;;4982909;28;20528;-66
2021/12/06 01:56:37;;;;;;;33.42;14.60;;;;;;;;;;4962148;28;20372;-65
2021/12/06 01:59:04;;;;;;;31.63;13.68;;;;;;;;;;4972462;28;20417;-66
2021/12/06 02:01:29;;;;;;;40.38;15.13;;;;;;;;;;4953865;28;20512;-66
2021/12/06 02:03:55;;;;;;;39.42;13.82;;;;;;;;;;4971989;28;20071;-66
2021/12/06 02:06:20;;;;;;;37.15;14.32;;;;;;;;;;4953595;28;20061;-67
2021/12/06 02:08:45;;;;;;;34.67;14.63;;;;;;;;;;4972809;28;20525;-65
2021/12/06 02:11:11;;;;;;;34.67;13.63;;;;;;;;;;4971045;28;20502;-66
2021/12/06 02:14:06;;;;;;;32.75;14.27;;;;;;;;;;4953739;28;20372;-66
2021/12/06 02:16:31;;;;;;;37.25;14.85;;;;;;;;;;4970826;28;20340;-65
2021/12/06 02:19:02;;;;;;;31.15;13.85;;;;;;;;;;4971087;28;20021;-65
2021/12/06 02:21:32;;;;;;;28.40;13.50;;;;;;;;;;4971440;28;20359;-67
2021/12/06 02:24:01;;;;;;;33.33;13.90;;;;;;;;;;4971450;28;20436;-66
2021/12/06 02:26:27;;;;;;;31.87;13.50;;;;;;;;;;4953994;28;20025;-66
2021/12/06 02:28:52;;;;;;;30.52;12.75;;;;;;;;;;4937611;28;20670;-66
2021/12/06 02:31:20;;;;;;;31.45;12.50;;;;;;;;;;4953004;28;20410;-66
2021/12/06 02:33:46;;;;;;;32.92;14.75;;;;;;;;;;4971911;28;20335;-65
2021/12/06 02:36:12;;;;;;;35.30;12.45;;;;;;;;;;4971100;28;20440;-66
2021/12/06 02:38:37;;;;;;;30.27;13.63;;;;;;;;;;4971135;28;20340;-66
2021/12/06 02:41:03;;;;;;;35.58;14.38;;;;;;;;;;4952812;28;20539;-66
2021/12/06 02:43:28;;;;;;;39.75;13.75;;;;;;;;;;4970826;28;20467;-66
2021/12/06 02:45:54;;;;;;;30.40;13.35;;;;;;;;;;4971617;28;20522;-65
2021/12/06 02:48:19;;;;;;;35.08;13.93;;;;;;;;;;4971099;28;20447;-66
2021/12/06 02:50:50;;;;;;;30.08;13.27;;;;;;;;;;4970629;28;20460;-66
2021/12/06 02:53:17;;;;;;;30.25;12.45;;;;;;;;;;4970541;28;20502;-66
2021/12/06 02:55:43;;;;;;;33.40;14.23;;;;;;;;;;4957921;28;20499;-66
2021/12/06 02:58:33;;;;;;;32.75;13.43;;;;;;;;;;4989860;28;20452;-66
2021/12/06 03:00:59;;;;;;;32.75;13.55;;;;;;;;;;4990067;28;20526;-67
2021/12/06 03:03:24;;;;;;;31.45;12.52;;;;;;;;;;4991068;28;20025;-66
2021/12/06 03:05:51;;;;;;;34.35;14.75;;;;;;;;;;4989976;28;20474;-68
2021/12/06 03:08:59;;;;;;;28.98;12.27;;;;;;;;;;4990055;28;20340;-66
2021/12/06 03:11:32;;;;;;;33.28;13.32;;;;;;;;;;4875199;29;20328;-66
2021/12/06 03:13:57;;;;;;;34.53;12.77;;;;;;;;;;4978570;28;20119;-66
2021/12/06 03:16:23;;;;;;;31.50;13.52;;;;;;;;;;4971830;28;20032;-66
2021/12/06 03:18:53;;;;;;;28.77;12.50;;;;;;;;;;4988355;28;20469;-67
2021/12/06 03:21:20;;;;;;;33.97;14.32;;;;;;;;;;4989810;28;20041;-65
2021/12/06 03:23:46;;;;;;;31.88;13.18;;;;;;;;;;4989775;28;20043;-66
2021/12/06 03:26:12;;;;;;;30.13;13.25;;;;;;;;;;4972666;28;20422;-66
2021/12/06 03:28:39;;;;;;;29.65;13.80;;;;;;;;;;4990119;28;20404;-67
2021/12/06 03:31:06;;;;;;;30.85;12.57;;;;;;;;;;4990417;28;20495;-66
2021/12/06 03:33:34;;;;;;;28.85;12.52;;;;;;;;;;4989892;28;20460;-66
2021/12/06 03:35:59;;;;;;;25.20;11.98;;;;;;;;;;4972425;28;20406;-66
2021/12/06 03:38:25;;;;;;;28.73;12.95;;;;;;;;;;4971419;28;20029;-66
2021/12/06 03:40:50;;;;;;;30.83;12.32;;;;;;;;;;4990418;28;20056;-66
2021/12/06 03:43:16;;;;;;;29.17;13.85;;;;;;;;;;4971638;28;20519;-65
2021/12/06 03:45:41;;;;;;;25.40;12.93;;;;;;;;;;4989460;28;20344;-66
2021/12/06 03:48:06;;;;;;;33.50;13.18;;;;;;;;;;4989224;28;20386;-66
2021/12/06 03:50:32;;;;;;;32.47;13.52;;;;;;;;;;4988998;28;20037;-65
2021/12/06 03:52:57;;;;;;;31.80;13.43;;;;;;;;;;4988928;28;20363;-66
2021/12/06 03:55:22;;;;;;;30.42;12.32;;;;;;;;;;4988146;28;20414;-65
2021/12/06 03:57:48;;;;;;;26.15;11.73;;;;;;;;;;4990310;28;20037;-66
2021/12/06 04:00:14;;;;;;;31.65;13.45;;;;;;;;;;4988734;28;20463;-65
2021/12/06 04:02:40;;;;;;;33.30;12.90;;;;;;;;;;4989949;28;20441;-65
2021/12/06 04:05:06;;;;;;;30.90;13.18;;;;;;;;;;4989405;28;20431;-67
2021/12/06 04:07:32;;;;;;;27.67;12.10;;;;;;;;;;4971177;28;20131;-67
2021/12/06 04:09:57;;;;;;;33.38;13.25;;;;;;;;;;4971557;28;20440;-65
2021/12/06 04:12:22;;;;;;;26.45;13.30;;;;;;;;;;4971076;28;20494;-66
2021/12/06 04:14:48;;;;;;;28.27;11.95;;;;;;;;;;4971274;28;20344;-65
2021/12/06 04:17:13;;;;;;;30.05;13.13;;;;;;;;;;4989501;28;20483;-66
2021/12/06 04:19:41;;;;;;;31.23;13.27;;;;;;;;;;4988476;28;20399;-67
2021/12/06 04:22:07;;;;;;;31.48;13.30;;;;;;;;;;4988879;28;20332;-65
2021/12/06 04:24:32;;;;;;;34.45;13.73;;;;;;;;;;4971631;28;20332;-65
2021/12/06 04:26:58;;;;;;;29.20;11.98;;;;;;;;;;4988531;28;20463;-66
2021/12/06 04:29:24;;;;;;;26.05;11.75;;;;;;;;;;4971546;28;20024;-66
2021/12/06 04:31:53;;;;;;;31.23;13.40;;;;;;;;;;4971066;28;20443;-66
2021/12/06 04:34:20;;;;;;;26.85;12.27;;;;;;;;;;4971485;28;20427;-65
2021/12/06 04:36:47;;;;;;;30.52;12.30;;;;;;;;;;4988618;28;20376;-66
2021/12/06 04:39:17;;;;;;;31.40;14.00;;;;;;;;;;4954429;28;20347;-65
2021/12/06 04:41:42;;;;;;;27.08;13.18;;;;;;;;;;4988574;28;20090;-66
2021/12/06 04:44:08;;;;;;;27.73;12.50;;;;;;;;;;4989080;28;20448;-65
2021/12/06 04:46:34;;;;;;;27.80;12.73;;;;;;;;;;4988741;28;20454;-65
2021/12/06 04:49:00;;;;;;;25.40;11.68;;;;;;;;;;4988988;28;20132;-66
2021/12/06 04:51:25;;;;;;;33.28;12.90;;;;;;;;;;4988272;28;20546;-66
2021/12/06 04:53:52;;;;;;;28.65;12.43;;;;;;;;;;4988580;28;20077;-66
2021/12/06 04:56:21;;;;;;;29.15;12.50;;;;;;;;;;4987905;28;20447;-66
2021/12/06 04:59:09;;;;;;;32.83;13.23;;;;;;;;;;4988278;28;20341;-65
2021/12/06 05:01:35;;;;;;;27.45;12.45;;;;;;;;;;4988441;28;20091;-65
2021/12/06 05:04:04;;;;;;;28.77;12.63;;;;;;;;;;4970491;28;20083;-65
2021/12/06 05:06:32;;;;;;;26.95;12.05;;;;;;;;;;4989953;28;20037;-66
2021/12/06 05:09:03;;;;;;;28.48;13.20;;;;;;;;;;4992138;28;20455;-66
2021/12/06 05:11:29;;;;;;;26.48;12.05;;;;;;;;;;4993456;28;20083;-66
2021/12/06 05:13:57;;;;;;;31.17;12.43;;;;;;;;;;4992093;28;20328;-66
2021/12/06 05:16:23;;;;;;;28.92;12.38;;;;;;;;;;4991871;28;20116;-66
2021/12/06 05:18:49;;;;;;;23.98;11.40;;;;;;;;;;4974777;28;20419;-66
2021/12/06 05:21:15;;;;;;;24.83;10.75;;;;;;;;;;4992258;28;20448;-66
2021/12/06 05:23:40;;;;;;;28.48;12.85;;;;;;;;;;4974377;28;20057;-66
2021/12/06 05:26:06;;;;;;;23.63;11.48;;;;;;;;;;4992097;28;20161;-66
2021/12/06 05:28:34;;;;;;;23.45;11.63;;;;;;;;;;4973875;28;20367;-66
2021/12/06 05:31:00;;;;;;;23.85;10.38;;;;;;;;;;4991728;28;20446;-66
2021/12/06 05:33:30;;;;;;;33.13;11.10;;;;;;;;;;4991751;28;20432;-68
2021/12/06 05:35:58;;;;;;;24.25;11.65;;;;;;;;;;4991588;28;20319;-69
2021/12/06 05:38:26;;;;;;;26.85;11.63;;;;;;;;;;4993416;28;20462;-66
2021/12/06 05:40:52;;;;;;;25.58;10.43;;;;;;;;;;4974780;28;20033;-65
2021/12/06 05:43:17;;;;;;;22.38;9.88;;;;;;;;;;4991548;28;20497;-69
2021/12/06 05:45:42;;;;;;;23.98;11.85;;;;;;;;;;4973891;28;20021;-68
2021/12/06 05:48:08;;;;;;;20.00;9.73;;;;;;;;;;4991898;28;20520;-66
2021/12/06 05:50:33;;;;;;;24.65;10.85;;;;;;;;;;4991346;28;20298;-65
2021/12/06 05:52:58;;;;;;;24.23;10.90;;;;;;;;;;4973765;28;20294;-67
2021/12/06 05:55:27;;;;;;;29.00;10.68;;;;;;;;;;4991200;28;20021;-65
2021/12/06 05:57:53;;;;;;;24.23;10.93;;;;;;;;;;4973905;28;20331;-65
2021/12/06 06:00:21;;;;;;;23.75;10.27;;;;;;;;;;4973608;28;20355;-65
2021/12/06 06:02:46;;;;;;;21.02;10.00;;;;;;;;;;4991375;28;20424;-65
2021/12/06 06:05:12;;;;;;;18.88;9.45;;;;;;;;;;4992588;28;20392;-66
2021/12/06 06:07:38;;;;;;;26.30;10.68;;;;;;;;;;4974172;28;20052;-66
2021/12/06 06:10:05;;;;;;;21.63;10.95;;;;;;;;;;4990172;28;20407;-66
2021/12/06 06:12:30;;;;;;;24.85;10.93;;;;;;;;;;4992660;28;20533;-66
2021/12/06 06:14:56;;;;;;;23.85;9.68;;;;;;;;;;4991185;28;20402;-65
2021/12/06 06:17:21;;;;;;;21.90;9.63;;;;;;;;;;4973392;28;20385;-66
2021/12/06 06:19:51;;;;;;;22.85;9.80;;;;;;;;;;4991129;28;20523;-65
2021/12/06 06:22:17;;;;;;;18.48;9.05;;;;;;;;;;4973036;28;20056;-66
2021/12/06 06:24:42;;;;;;;22.75;11.35;;;;;;;;;;4990725;28;20051;-65
2021/12/06 06:27:08;;;;;;;18.73;9.73;;;;;;;;;;4991405;28;20095;-66
2021/12/06 06:29:35;;;;;;;22.23;10.25;;;;;;;;;;4973903;28;20705;-66
2021/12/06 06:32:01;;;;;;;21.00;10.40;;;;;;;;;;4990628;28;20535;-66
2021/12/06 06:34:26;;;;;;;23.80;11.00;;;;;;;;;;4990673;28;20398;-66
2021/12/06 06:36:52;;;;;;;23.50;10.82;;;;;;;;;;4973021;28;20438;-66
2021/12/06 06:39:19;;;;;;;22.08;10.43;;;;;;;;;;4988911;28;20067;-66
2021/12/06 06:41:47;;;;;;;27.65;12.82;;;;;;;;;;4990593;28;20463;-66
2021/12/06 06:44:12;;;;;;;19.10;9.35;;;;;;;;;;4990419;28;20502;-66
2021/12/06 06:46:37;;;;;;;23.08;9.75;;;;;;;;;;4972621;28;20420;-66
2021/12/06 06:49:03;;;;;;;22.25;10.25;;;;;;;;;;4990860;28;20490;-66
2021/12/06 06:51:29;;;;;;;21.33;9.95;;;;;;;;;;4990367;28;20382;-66
2021/12/06 06:53:54;;;;;;;21.45;10.10;;;;;;;;;;4991238;28;20474;-66
2021/12/06 06:56:19;;;;;;;25.17;11.25;;;;;;;;;;4989865;28;20490;-67
2021/12/06 06:58:45;;;;;;;21.85;9.93;;;;;;;;;;4973269;28;20339;-65
2021/12/06 07:01:10;;;;;;;21.42;10.07;;;;;;;;;;4989704;28;20345;-66
2021/12/06 07:03:35;;;;;;;21.20;10.45;;;;;;;;;;4992138;28;20517;-66
2021/12/06 07:06:02;;;;;;;23.08;9.63;;;;;;;;;;4991480;28;20036;-66
2021/12/06 07:08:28;;;;;;;23.42;10.15;;;;;;;;;;4990173;28;20025;-66
2021/12/06 07:10:54;;;;;;;24.17;9.60;;;;;;;;;;4990765;28;20052;-65
2021/12/06 07:13:21;;;;;;;23.38;10.18;;;;;;;;;;4990982;28;20167;-66
2021/12/06 07:15:46;;;;;;;18.55;8.65;;;;;;;;;;4972360;28;20029;-66
2021/12/06 07:18:12;;;;;;;21.77;9.63;;;;;;;;;;4990690;28;20459;-65
2021/12/06 07:20:37;;;;;;;21.38;9.70;;;;;;;;;;4989581;28;20479;-66
2021/12/06 07:23:03;;;;;;;23.60;10.13;;;;;;;;;;4990098;28;20332;-66
2021/12/06 07:25:29;;;;;;;25.98;10.50;;;;;;;;;;4989545;28;20051;-66
2021/12/06 07:27:55;;;;;;;19.90;8.55;;;;;;;;;;4972223;28;20440;-67
2021/12/06 07:30:21;;;;;;;20.63;9.05;;;;;;;;;;4971194;28;20475;-67
2021/12/06 07:32:47;;;;;;;23.10;9.35;;;;;;;;;;4989379;28;20400;-65
2021/12/06 07:35:13;;;;;;;20.38;10.07;;;;;;;;;;4971585;28;20025;-66
2021/12/06 07:37:39;;;;;;;20.58;8.48;;;;;;;;;;4989161;28;20403;-66
2021/12/06 07:40:08;;;;;;;21.08;9.95;;;;;;;;;;4971584;28;20388;-66
2021/12/06 07:42:33;;;;;;;20.83;9.57;;;;;;;;;;4991100;28;20459;-66
2021/12/06 07:45:00;;;;;;;16.55;8.23;;;;;;;;;;4989338;28;20439;-65
2021/12/06 07:47:25;;;;;;;17.33;8.40;;;;;;;;;;4971323;28;20451;-66
2021/12/06 07:49:50;;;;;;;19.83;8.75;;;;;;;;;;4990824;28;20033;-67
2021/12/06 07:52:16;;;;;;;20.02;9.70;;;;;;;;;;4989003;28;20339;-65
2021/12/06 07:54:42;;;;;;;20.80;8.75;;;;;;;;;;4989321;28;20432;-65
2021/12/06 07:57:08;;;;;;;17.15;8.20;;;;;;;;;;4989524;28;20454;-66
2021/12/06 07:59:35;;;;;;;17.33;8.60;;;;;;;;;;4971276;28;20025;-66
2021/12/06 08:02:01;;;;;;;19.05;9.02;;;;;;;;;;4971481;28;20052;-66
2021/12/06 08:04:27;;;;;;;18.80;8.23;;;;;;;;;;4988826;28;20029;-66
2021/12/06 08:06:52;;;;;;;23.08;9.50;;;;;;;;;;4989471;28;20416;-66
2021/12/06 08:09:18;;;;;;;17.73;8.48;;;;;;;;;;4989178;28;20037;-66
2021/12/06 08:11:43;;;;;;;17.48;7.95;;;;;;;;;;4971616;28;20483;-66
2021/12/06 08:14:09;;;;;;;18.92;8.70;;;;;;;;;;4970938;28;20102;-66
2021/12/06 08:16:39;;;;;;;20.25;8.98;;;;;;;;;;4971729;28;20495;-66
2021/12/06 08:19:05;;;;;;;21.67;9.80;;;;;;;;;;4988604;28;20028;-66
2021/12/06 08:21:31;;;;;;;18.42;8.55;;;;;;;;;;4971457;28;20365;-66
2021/12/06 08:23:58;;;;;;;15.20;7.82;;;;;;;;;;4988907;28;20343;-66
2021/12/06 08:26:26;;;;;;;15.88;7.65;;;;;;;;;;4971207;28;20363;-66
2021/12/06 08:28:53;;;;;;;17.02;8.68;;;;;;;;;;4989093;28;20475;-66
2021/12/06 08:31:19;;;;;;;16.70;8.35;;;;;;;;;;4971267;28;20387;-66
2021/12/06 08:33:46;;;;;;;17.38;8.18;;;;;;;;;;4988269;28;20372;-65
2021/12/06 08:36:12;;;;;;;15.77;8.13;;;;;;;;;;4990600;28;20493;-66
2021/12/06 08:38:40;;;;;;;14.95;7.95;;;;;;;;;;4970579;28;20503;-66
2021/12/06 08:41:10;;;;;;;20.77;8.30;;;;;;;;;;4990543;28;20387;-66
2021/12/06 08:43:36;;;;;;;16.95;8.57;;;;;;;;;;4992586;28;20039;-65
2021/12/06 08:46:06;;;;;;;19.55;8.15;;;;;;;;;;4994609;28;20367;-65
2021/12/06 08:48:35;;;;;;;17.77;8.52;;;;;;;;;;4974612;28;20386;-66
2021/12/06 08:51:05;;;;;;;24.88;10.18;;;;;;;;;;4992663;28;20037;-65
2021/12/06 08:53:30;;;;;;;16.98;8.13;;;;;;;;;;4974882;28;20429;-67
2021/12/06 08:55:56;;;;;;;17.98;7.70;;;;;;;;;;4969525;28;20542;-66
2021/12/06 08:58:22;;;;;;;19.27;8.50;;;;;;;;;;4972458;28;20415;-65
2021/12/06 09:00:48;;;;;;;20.23;8.88;;;;;;;;;;4954540;28;20057;-67
2021/12/06 09:03:13;;;;;;;17.25;7.85;;;;;;;;;;4972637;28;20409;-66
2021/12/06 09:05:43;;;;;;;18.33;9.02;;;;;;;;;;4954622;28;20448;-65
2021/12/06 09:08:09;;;;;;;14.13;7.38;;;;;;;;;;4973229;28;20511;-65
2021/12/06 09:10:34;;;;;;;18.08;8.52;;;;;;;;;;4972850;28;20018;-65
2021/12/06 09:13:00;;;;;;;16.48;7.53;;;;;;;;;;4974281;28;20056;-66
2021/12/06 09:15:26;;;;;;;19.00;8.98;;;;;;;;;;4972744;28;20487;-65
2021/12/06 09:17:53;;;;;;;18.00;7.75;;;;;;;;;;4972509;28;20333;-65
2021/12/06 09:20:22;;;;;;;20.98;9.10;;;;;;;;;;4972328;28;20456;-65
2021/12/06 09:22:48;;;;;;;15.20;8.05;;;;;;;;;;4954933;28;20448;-66
2021/12/06 09:25:15;;;;;;;16.52;8.30;;;;;;;;;;4972747;28;20455;-66
2021/12/06 09:27:41;;;;;;;18.52;8.98;;;;;;;;;;4971825;28;20392;-67
2021/12/06 09:30:10;;;;;;;17.38;8.60;;;;;;;;;;4972314;28;20340;-66
2021/12/06 09:32:35;;;;;;;;;;;;;;;;;;4972817;28;20037;-66
2021/12/06 09:35:03;;;;;;;22.77;8.35;;;;;;;;;;4972241;28;19917;-68
2021/12/06 09:37:28;;;;;;;15.75;8.68;;;;;;;;;;4972747;28;20475;-66
2021/12/06 09:39:56;;;;;;;17.10;7.93;;;;;;;;;;4937927;28;20476;-66
2021/12/06 09:42:22;;;;;;;16.88;8.32;;;;;;;;;;4954515;28;20333;-65
2021/12/06 09:44:48;;;;;;;14.85;8.73;;;;;;;;;;4954308;28;20368;-66
2021/12/06 09:47:13;;;;;;;16.35;8.90;;;;;;;;;;4954617;28;20041;-65
2021/12/06 09:49:39;;;;;;;16.08;7.95;;;;;;;;;;4938874;28;20099;-65
2021/12/06 09:52:05;;;;;;;14.27;7.78;;;;;;;;;;4971702;28;20374;-66
2021/12/06 09:54:34;;;;;;;16.50;8.75;;;;;;;;;;4972057;28;20441;-65
2021/12/06 09:57:02;;;;;;;17.40;8.60;;;;;;;;;;4953957;28;20046;-66
2021/12/06 09:59:28;;;;;;;13.88;7.22;;;;;;;;;;4971490;28;20435;-66
2021/12/06 10:01:59;;;;;;;16.20;8.20;;;;;;;;;;4973134;28;20368;-66
2021/12/06 10:04:28;;;;;;;17.83;8.40;;;;;;;;;;4953928;28;20440;-66
2021/12/06 10:06:54;;;;;;;20.42;8.48;;;;;;;;;;4971511;28;20535;-67
2021/12/06 10:09:22;;;;;;;15.35;8.18;;;;;;;;;;4937942;28;20467;-66
2021/12/06 10:11:48;;;;;;;11.65;6.72;;;;;;;;;;4971853;28;20387;-66
2021/12/06 10:14:15;;;;;;;13.73;7.43;;;;;;;;;;4953736;28;20359;-68
2021/12/06 10:16:41;;;;;;;17.67;7.70;;;;;;;;;;4971684;28;20427;-66
2021/12/06 10:19:07;;;;;;;15.50;7.53;;;;;;;;;;4971202;28;20411;-66
2021/12/06 10:21:34;;;;;;;13.93;7.43;;;;;;;;;;4953542;28;20452;-66
2021/12/06 10:23:59;;;;;;;15.57;8.38;;;;;;;;;;4971983;28;20428;-66
2021/12/06 10:26:28;;;;;;;16.38;8.77;;;;;;;;;;4972583;28;20475;-66
2021/12/06 10:29:20;;;;;;;19.92;9.10;;;;;;;;;;4971295;28;20041;-66
2021/12/06 10:31:48;;;;;;;13.85;7.82;;;;;;;;;;4953960;28;20400;-66
2021/12/06 10:34:22;;;;;;;14.55;8.15;;;;;;;;;;4953240;28;20386;-66
2021/12/06 10:36:48;;;;;;;18.85;9.77;;;;;;;;;;4970995;28;20349;-65
2021/12/06 10:39:13;;;;;;;23.08;8.85;;;;;;;;;;4953983;28;20348;-66
2021/12/06 10:41:40;;;;;;;18.05;8.52;;;;;;;;;;4937117;28;20436;-67
2021/12/06 10:44:09;;;;;;;17.73;8.73;;;;;;;;;;4954685;28;20403;-66
2021/12/06 10:46:36;;;;;;;17.17;7.65;;;;;;;;;;4970971;28;20407;-70
2021/12/06 10:49:05;;;;;;;17.23;8.00;;;;;;;;;;4953340;28;20029;-67
2021/12/06 10:51:31;;;;;;;18.73;8.30;;;;;;;;;;4971342;28;20107;-66
2021/12/06 10:54:03;;;;;;;15.35;8.23;;;;;;;;;;4970902;28;20052;-67
2021/12/06 10:56:45;;;;;;;21.42;9.77;;;;;;;;;;4980048;28;20049;-66
2021/12/06 10:59:22;;;;;;;14.93;8.07;;;;;;;;;;4990270;28;20025;-66
2021/12/06 11:01:51;;;;;;;17.35;7.93;;;;;;;;;;4990148;28;20455;-67
2021/12/06 11:04:19;;;;;;;16.05;8.77;;;;;;;;;;4971776;28;20313;-68
2021/12/06 11:06:48;;;;;;;16.15;8.38;;;;;;;;;;4990302;28;20017;-67
2021/12/06 11:09:18;;;;;;;16.27;9.45;;;;;;;;;;4972182;28;20418;-67
2021/12/06 11:11:50;;;;;;;16.13;9.15;;;;;;;;;;4972310;28;20316;-67
2021/12/06 11:14:21;;;;;;;16.55;8.93;;;;;;;;;;4990775;28;20408;-67
2021/12/06 11:16:51;;;;;;;14.73;7.80;;;;;;;;;;4990261;28;20344;-66
2021/12/06 11:19:16;;;;;;;;;;;;;;;;;;4972600;28;20321;-66
2021/12/06 11:21:48;;;;;;;18.40;7.38;;;;;;;;;;4988255;28;20025;-67
2021/12/06 11:24:30;;;;;;;18.02;9.02;;;;;;;;;;4991189;28;20345;-66
2021/12/06 11:27:20;;;;;;;19.10;7.78;;;;;;;;;;4987874;28;20391;-66
2021/12/06 11:30:07;;;;;;;13.32;7.88;;;;;;;;;;4988361;28;20037;-67
2021/12/06 11:32:34;;;;;;;14.20;8.05;;;;;;;;;;4989574;28;20348;-66
2021/12/06 11:35:21;;;;;;;15.35;8.30;;;;;;;;;;4989631;28;20512;-66
2021/12/06 11:37:49;;;;;;;18.45;8.30;;;;;;;;;;4987761;28;20524;-67
2021/12/06 11:40:20;;;;;;;18.52;8.50;;;;;;;;;;4989797;28;20395;-66
2021/12/06 11:42:56;;;;;;;19.05;8.35;;;;;;;;;;4990052;28;20383;-68
2021/12/06 11:45:36;;;;;;;14.32;7.85;;;;;;;;;;4971973;28;20032;-67
2021/12/06 11:48:01;;;;;;;18.02;7.43;;;;;;;;;;4990781;28;20435;-69
2021/12/06 11:50:27;;;;;;;14.00;7.78;;;;;;;;;;4989444;28;20313;-66
2021/12/06 11:52:53;;;;;;;15.63;7.63;;;;;;;;;;4972573;28;20294;-66
2021/12/06 11:55:19;;;;;;;14.00;7.20;;;;;;;;;;4971205;28;20083;-67
2021/12/06 11:57:53;;;;;;;15.27;8.68;;;;;;;;;;4935848;28;20330;-68
2021/12/06 12:00:21;;;;;;;17.27;8.77;;;;;;;;;;4971168;28;20471;-68
2021/12/06 12:02:58;;;;;;;21.45;8.43;;;;;;;;;;4970596;28;20383;-67
2021/12/06 12:05:36;;;;;;;17.65;8.10;;;;;;;;;;4969385;28;20037;-66
2021/12/06 12:08:12;;;;;;;15.93;7.85;;;;;;;;;;4970024;28;20429;-66
2021/12/06 12:10:52;;;;;;;19.42;8.82;;;;;;;;;;4969297;28;20033;-66
2021/12/06 12:13:25;;;;;;;17.35;8.38;;;;;;;;;;4951644;28;20333;-67
2021/12/06 12:15:53;;;;;;;17.35;8.30;;;;;;;;;;4968819;28;20460;-69
2021/12/06 12:18:19;;;;;;;20.25;9.40;;;;;;;;;;4969357;28;20033;-66
2021/12/06 12:20:44;;;;;;;22.42;8.63;;;;;;;;;;4970653;28;20424;-66
2021/12/06 12:23:10;;;;;;;20.02;9.60;;;;;;;;;;4969367;28;20396;-69
2021/12/06 12:25:44;;;;;;;20.38;10.18;;;;;;;;;;4968798;28;20464;-67
2021/12/06 12:28:23;;;;;;;21.20;8.75;;;;;;;;;;4970222;28;20536;-66
2021/12/06 12:30:52;;;;;;;24.85;8.80;;;;;;;;;;4969150;28;20424;-67
2021/12/06 12:33:20;;;;;;;22.90;8.60;;;;;;;;;;4951595;28;20493;-67
2021/12/06 12:35:49;;;;;;;22.08;9.10;;;;;;;;;;4952067;28;20049;-66
2021/12/06 12:38:25;;;;;;;17.83;8.52;;;;;;;;;;4969252;28;20460;-66
2021/12/06 12:40:58;;;;;;;22.17;8.43;;;;;;;;;;4969640;28;20052;-67
2021/12/06 12:43:34;;;;;;;21.58;8.80;;;;;;;;;;4968883;28;20452;-67
2021/12/06 12:46:04;;;;;;;21.77;9.20;;;;;;;;;;4969391;28;20413;-66
2021/12/06 12:48:52;;;;;;;23.27;9.77;;;;;;;;;;4935286;28;20337;-69
2021/12/06 12:51:41;;;;;;;26.07;10.17;;;;;;;;;;4968817;28;20445;-68
2021/12/06 12:54:08;;;;;;;24.00;8.90;;;;;;;;;;4950557;28;20029;-67
2021/12/06 12:56:42;;;;;;;20.60;9.05;;;;;;;;;;4978815;28;20537;-66
2021/12/06 12:59:24;;;;;;;24.02;9.13;;;;;;;;;;4970745;28;20488;-67
2021/12/06 13:02:20;;;;;;;21.08;8.55;;;;;;;;;;4988211;28;20305;-66
2021/12/06 13:04:57;;;;;;;24.85;10.27;;;;;;;;;;4988521;28;20037;-66
2021/12/06 13:07:26;;;;;;;19.88;9.25;;;;;;;;;;4988577;28;20470;-66
2021/12/06 13:09:53;;;;;;;23.27;9.82;;;;;;;;;;4987164;28;20509;-67
2021/12/06 13:12:19;;;;;;;24.15;9.18;;;;;;;;;;4988211;28;20466;-67
2021/12/06 13:14:58;;;;;;;24.48;9.15;;;;;;;;;;4988800;28;20559;-67
2021/12/06 13:17:34;;;;;;;20.90;9.48;;;;;;;;;;4988156;28;20463;-66
2021/12/06 13:20:13;;;;;;;26.38;8.90;;;;;;;;;;4988766;28;20335;-66
2021/12/06 13:22:47;;;;;;;;;;;;;;;;;;4970841;28;20403;-67
2021/12/06 13:25:14;;;;;;;22.45;8.68;;;;;;;;;;4988339;28;20317;-67
2021/12/06 13:27:43;;;;;;;24.85;9.75;;;;;;;;;;4989610;28;20390;-66
2021/12/06 13:30:21;;;;;;;32.83;11.43;;;;;;;;;;4991726;28;20391;-67
2021/12/06 13:33:21;;;;;;;27.20;11.25;;;;;;;;;;4992236;28;20351;-67
2021/12/06 13:35:58;;;;;;;29.20;10.30;;;;;;;;;;4938101;28;20467;-68
2021/12/06 13:38:36;;;;;;;22.98;9.55;;;;;;;;;;4974633;28;20324;-67
2021/12/06 13:41:04;;;;;;;25.30;10.43;;;;;;;;;;4991966;28;20056;-68
2021/12/06 13:43:51;;;;;;;23.75;9.60;;;;;;;;;;4991431;28;20418;-68
2021/12/06 13:46:21;;;;;;;27.92;10.60;;;;;;;;;;4991805;28;20363;-67
2021/12/06 13:48:50;;;;;;;27.83;10.07;;;;;;;;;;4973829;28;20371;-68
2021/12/06 13:51:42;;;;;;;24.98;10.07;;;;;;;;;;4992230;28;20392;-67
2021/12/06 13:54:11;;;;;;;26.55;10.85;;;;;;;;;;4973932;28;20416;-67
2021/12/06 13:56:47;;;;;;;25.83;10.57;;;;;;;;;;4991054;28;21207;-67
2021/12/06 13:59:20;;;;;;;23.92;10.32;;;;;;;;;;4993597;28;20345;-67
2021/12/06 14:01:47;;;;;;;24.85;9.90;;;;;;;;;;4991349;28;20440;-66
2021/12/06 14:04:16;;;;;;;26.45;9.52;;;;;;;;;;4990368;28;20329;-66
2021/12/06 14:06:55;;;;;;;25.60;10.20;;;;;;;;;;4991490;28;20436;-66
2021/12/06 14:09:26;;;;;;;22.20;9.60;;;;;;;;;;4992456;28;20443;-66
2021/12/06 14:11:54;;;;;;;25.05;9.88;;;;;;;;;;4991829;28;20324;-67
2021/12/06 14:14:21;;;;;;;21.80;9.63;;;;;;;;;;4991222;28;20428;-66
2021/12/06 14:16:46;;;;;;;20.83;9.15;;;;;;;;;;4973383;28;20033;-67
2021/12/06 14:19:13;;;;;;;30.98;9.68;;;;;;;;;;4992802;28;20347;-66
2021/12/06 14:21:40;;;;;;;21.65;9.40;;;;;;;;;;4990618;28;20430;-67
2021/12/06 14:24:06;;;;;;;23.63;8.60;;;;;;;;;;4991079;28;20459;-66
2021/12/06 14:26:41;;;;;;;19.52;9.23;;;;;;;;;;4990615;28;20415;-66
2021/12/06 14:29:12;;;;;;;23.00;10.40;;;;;;;;;;4973791;28;20025;-67
2021/12/06 14:31:43;;;;;;;23.83;9.32;;;;;;;;;;4992426;28;20051;-66
2021/12/06 14:34:08;;;;;;;23.40;8.38;;;;;;;;;;4956475;28;20363;-66
2021/12/06 14:36:34;;;;;;;21.73;9.32;;;;;;;;;;4991300;28;20336;-66
2021/12/06 14:39:11;;;;;;;22.02;9.48;;;;;;;;;;4991452;28;20370;-67
2021/12/06 14:41:49;;;;;;;21.08;9.73;;;;;;;;;;4972630;28;20446;-66
2021/12/06 14:44:44;;;;;;;22.20;9.38;;;;;;;;;;4989549;28;20457;-67
2021/12/06 14:47:32;;;;;;;19.88;9.18;;;;;;;;;;4990621;28;20416;-66
2021/12/06 14:50:01;;;;;;;24.77;9.75;;;;;;;;;;4990434;28;20416;-66
2021/12/06 14:52:34;;;;;;;24.70;8.77;;;;;;;;;;4974085;28;20367;-66
2021/12/06 14:55:03;;;;;;;20.95;8.52;;;;;;;;;;4990227;28;20436;-67
2021/12/06 14:57:31;;;;;;;27.92;9.23;;;;;;;;;;4987438;28;20507;-67
2021/12/06 15:00:03;;;;;;;21.55;8.77;;;;;;;;;;4990135;28;20063;-67
2021/12/06 15:02:39;;;;;;;23.45;9.65;;;;;;;;;;4972304;28;20328;-66
2021/12/06 15:05:04;;;;;;;20.40;9.73;;;;;;;;;;4972999;28;20416;-67
2021/12/06 15:07:30;;;;;;;21.58;9.48;;;;;;;;;;4972302;28;20316;-67
2021/12/06 15:09:55;;;;;;;18.38;9.48;;;;;;;;;;4972988;28;20064;-67
2021/12/06 15:12:22;;;;;;;24.80;9.18;;;;;;;;;;4990143;28;20041;-66
2021/12/06 15:14:47;;;;;;;17.92;8.90;;;;;;;;;;4973362;28;20482;-67
2021/12/06 15:17:13;;;;;;;21.80;8.98;;;;;;;;;;4989966;28;20475;-67
2021/12/06 15:19:41;;;;;;;19.25;8.27;;;;;;;;;;4988607;28;20028;-67
2021/12/06 15:22:07;;;;;;;17.40;7.95;;;;;;;;;;4971919;28;20029;-67
2021/12/06 15:24:33;;;;;;;20.27;8.48;;;;;;;;;;4972183;28;20486;-67
2021/12/06 15:27:01;;;;;;;19.95;8.43;;;;;;;;;;4989795;28;20408;-67
2021/12/06 15:29:35;;;;;;;18.75;7.82;;;;;;;;;;4990252;28;20382;-67
2021/12/06 15:32:06;;;;;;;24.08;10.27;;;;;;;;;;4972021;28;20510;-66
2021/12/06 15:34:34;;;;;;;20.83;8.85;;;;;;;;;;4972051;28;20325;-67
2021/12/06 15:36:59;;;;;;;21.55;10.05;;;;;;;;;;4988365;28;20448;-67
2021/12/06 15:39:27;;;;;;;22.10;9.95;;;;;;;;;;4989268;28;20501;-67
2021/12/06 15:41:56;;;;;;;18.92;9.68;;;;;;;;;;4971672;28;20347;-67
2021/12/06 15:44:23;;;;;;;;;;;;;;;;;;4972135;28;20314;-67
2021/12/06 15:46:54;;;;;;;16.67;7.97;;;;;;;;;;4989515;28;20327;-66
2021/12/06 15:49:20;;;;;;;20.40;9.25;;;;;;;;;;4989264;28;20387;-66
2021/12/06 15:51:56;;;;;;;16.67;8.65;;;;;;;;;;4989142;28;20414;-67
2021/12/06 15:54:26;;;;;;;17.00;7.90;;;;;;;;;;4971927;28;20394;-67
2021/12/06 15:57:04;;;;;;;17.45;9.27;;;;;;;;;;4961680;28;20610;-67
2021/12/06 15:59:31;;;;;;;14.32;8.15;;;;;;;;;;4970523;28;20026;-67
2021/12/06 16:02:12;;;;;;;16.98;8.55;;;;;;;;;;4953020;28;20636;-67
2021/12/06 16:04:40;;;;;;;13.82;7.40;;;;;;;;;;4968974;28;20361;-67
2021/12/06 16:07:06;;;;;;;21.73;8.88;;;;;;;;;;4970429;28;20456;-67
2021/12/06 16:09:33;;;;;;;22.92;9.32;;;;;;;;;;4951588;28;20486;-67
2021/12/06 16:12:01;;;;;;;19.75;8.82;;;;;;;;;;4952431;28;20449;-66
2021/12/06 16:14:27;;;;;;;18.55;7.90;;;;;;;;;;4969716;28;20119;-67
2021/12/06 16:16:53;;;;;;;22.13;9.63;;;;;;;;;;4969201;28;20440;-67
2021/12/06 16:19:21;;;;;;;22.42;8.77;;;;;;;;;;4951820;28;20344;-67
2021/12/06 16:21:48;;;;;;;18.83;8.32;;;;;;;;;;4951372;28;20440;-67
2021/12/06 16:24:15;;;;;;;15.68;7.07;;;;;;;;;;4951732;28;20136;-67
2021/12/06 16:26:44;;;;;;;17.75;8.27;;;;;;;;;;4951525;28;20034;-66
2021/12/06 16:29:21;;;;;;;18.40;8.40;;;;;;;;;;4951603;28;20318;-67